Time;durP1;ratioP1;P1;durP2;ratioP2;P2;SDS_P1;SDS_P2;PMS_P1;PMS_P2;Temp;Humidity;BMP_temperature;BMP_pressure;BME280_temperature;BME280_humidity;BME280_pressure;Samples;Min_cycle;Max_cycle;Signal;HPM_P1;HPM_P2
2023/03/25 00:00:15;;;;;;;;;;;9.50;99.90;;;;;;5028527;28;19921;-77
2023/03/25 00:02:44;;;;;;;;;;;9.50;99.90;;;;;;5047574;28;19931;-76
2023/03/25 00:05:11;;;;;;;;;;;9.50;99.90;;;;;;5041069;28;20023;-77
2023/03/25 00:07:37;;;;;;;;;;;9.50;99.90;;;;;;5003932;28;19932;-77
2023/03/25 00:10:03;;;;;;;;;;;9.50;99.90;;;;;;5027202;28;19925;-77
2023/03/25 00:12:29;;;;;;;;;;;9.50;99.90;;;;;;4996337;28;1100644;-77
2023/03/25 00:14:57;;;;;;;;;;;9.40;99.90;;;;;;5033040;28;19924;-77
2023/03/25 00:17:25;;;;;;;;;;;9.40;99.90;;;;;;5032258;28;19952;-76
2023/03/25 00:19:50;;;;;;;;;;;9.50;99.90;;;;;;5040329;28;19964;-76
2023/03/25 00:22:16;;;;;;;;;;;9.40;99.90;;;;;;5027686;28;20014;-77
2023/03/25 00:24:42;;;;;;;;;;;9.50;99.90;;;;;;5026964;28;19960;-77
2023/03/25 00:27:08;;;;;;;;;;;9.50;99.90;;;;;;5015529;28;20003;-79
2023/03/25 00:29:33;;;;;;;;;;;9.40;99.90;;;;;;5040280;28;19929;-77
2023/03/25 00:31:59;;;;;;;;;;;9.40;99.90;;;;;;5056933;28;19921;-78
2023/03/25 00:34:24;;;;;;;;;;;9.40;99.90;;;;;;5044649;28;19948;-76
2023/03/25 00:36:50;;;;;;;;;;;9.40;99.90;;;;;;5029158;28;19925;-78
2023/03/25 00:39:15;;;;;;;;;;;9.40;99.90;;;;;;5031855;28;19929;-78
2023/03/25 00:41:42;;;;;;;;;;;9.40;99.90;;;;;;5035999;28;19925;-77
2023/03/25 00:44:11;;;;;;;;;;;9.40;99.90;;;;;;5036836;28;19972;-77
2023/03/25 00:46:36;;;;;;;;;;;9.40;99.90;;;;;;5033440;28;20006;-77
2023/03/25 00:49:02;;;;;;;;;;;9.40;99.90;;;;;;5027495;28;19987;-77
2023/03/25 00:51:30;;;;;;;;;;;9.30;99.90;;;;;;5027741;28;20426;-77
2023/03/25 00:53:59;;;;;;;;;;;9.30;99.90;;;;;;5028075;28;19925;-77
2023/03/25 00:56:24;;;;;;;;;;;9.20;99.90;;;;;;5027251;28;20471;-77
2023/03/25 00:58:50;;;;;;;;;;;9.20;99.90;;;;;;5026997;28;20125;-78
2023/03/25 01:01:17;;;;;;;;;;;9.10;99.90;;;;;;5028193;28;19951;-76
2023/03/25 01:03:44;;;;;;;;;;;9.10;99.90;;;;;;5026712;28;20336;-77
2023/03/25 01:06:11;;;;;;;;;;;9.10;99.90;;;;;;5019862;28;19975;-77
2023/03/25 01:08:37;;;;;;;;;;;9.10;99.90;;;;;;5023360;28;19978;-77
2023/03/25 01:11:03;;;;;;;;;;;9.00;99.90;;;;;;5030391;28;19932;-77
2023/03/25 01:13:28;;;;;;;;;;;8.90;99.90;;;;;;5035108;28;20299;-76
2023/03/25 01:15:54;;;;;;;;;;;8.80;99.90;;;;;;5038513;28;19957;-77
2023/03/25 01:18:20;;;;;;;;;;;8.70;99.90;;;;;;5016394;28;19925;-77
2023/03/25 01:20:45;;;;;;;;;;;8.70;99.90;;;;;;5043385;28;19920;-77
2023/03/25 01:23:11;;;;;;;;;;;8.70;99.90;;;;;;5033202;28;19968;-76
2023/03/25 01:25:36;;;;;;;;;;;8.70;99.90;;;;;;5030321;28;19921;-77
2023/03/25 01:28:03;;;;;;;;;;;8.60;99.90;;;;;;5014641;28;20018;-77
2023/03/25 01:30:28;;;;;;;;;;;8.70;99.90;;;;;;5039968;28;19940;-76
2023/03/25 01:32:54;;;;;;;;;;;8.60;99.90;;;;;;5061599;28;19924;-76
2023/03/25 01:35:20;;;;;;;;;;;8.60;99.90;;;;;;5044293;28;19925;-77
2023/03/25 01:37:46;;;;;;;;;;;8.60;99.90;;;;;;5013453;28;20291;-77
2023/03/25 01:40:16;;;;;;;;;;;8.60;99.90;;;;;;5024238;28;19968;-76
2023/03/25 01:42:42;;;;;;;;;;;8.70;99.90;;;;;;5028921;28;20321;-76
2023/03/25 01:45:18;;;;;;;;;;;8.60;99.90;;;;;;5041836;28;20450;-76
2023/03/25 01:47:43;;;;;;;;;;;8.60;99.90;;;;;;5025111;28;20030;-76
2023/03/25 01:50:13;;;;;;;;;;;8.60;99.90;;;;;;5027700;28;19921;-76
2023/03/25 01:52:41;;;;;;;;;;;8.50;99.90;;;;;;5028525;28;19925;-77
2023/03/25 01:55:08;;;;;;;;;;;8.50;99.90;;;;;;5027731;28;19974;-76
2023/03/25 01:57:34;;;;;;;;;;;8.50;99.90;;;;;;5020405;28;19924;-77
2023/03/25 02:00:00;;;;;;;;;;;8.40;99.90;;;;;;5045786;28;20267;-77
2023/03/25 02:02:33;;;;;;;;;;;8.40;99.90;;;;;;5033079;28;19932;-76
2023/03/25 02:05:02;;;;;;;;;;;8.40;99.90;;;;;;5039087;28;19929;-77
2023/03/25 02:07:31;;;;;;;;;;;8.40;99.90;;;;;;5030706;28;19925;-77
2023/03/25 02:09:58;;;;;;;;;;;8.30;99.90;;;;;;5047013;28;20019;-77
2023/03/25 02:12:24;;;;;;;;;;;8.40;99.90;;;;;;5045587;28;20023;-76
2023/03/25 02:14:50;;;;;;;;;;;8.40;99.90;;;;;;5031027;28;19956;-77
2023/03/25 02:17:37;;;;;;;;;;;8.40;99.90;;;;;;5010415;28;19932;-76
2023/03/25 02:20:10;;;;;;;;;;;8.40;99.90;;;;;;5047015;28;20015;-76
2023/03/25 02:22:46;;;;;;;;;;;8.40;99.90;;;;;;5045803;28;20308;-77
2023/03/25 02:25:34;;;;;;;;;;;8.50;99.90;;;;;;5034102;28;19924;-76
2023/03/25 02:28:02;;;;;;;;;;;8.50;99.90;;;;;;5010939;28;20410;-77
2023/03/25 02:30:42;;;;;;;;;;;8.60;99.90;;;;;;5026993;28;20387;-77
2023/03/25 02:33:27;;;;;;;;;;;8.50;99.90;;;;;;5030510;28;19929;-76
2023/03/25 02:36:11;;;;;;;;;;;8.60;99.90;;;;;;5029125;28;20336;-76
2023/03/25 02:38:39;;;;;;;;;;;8.60;99.90;;;;;;5020542;28;19944;-77
2023/03/25 02:41:20;;;;;;;;;;;8.60;99.90;;;;;;5029003;28;19921;-77
2023/03/25 02:43:51;;;;;;;;;;;8.60;99.90;;;;;;5041783;28;19951;-76
2023/03/25 02:46:18;;;;;;;;;;;8.70;99.90;;;;;;5032195;28;19926;-76
2023/03/25 02:48:55;;;;;;;;;;;8.60;99.90;;;;;;5027172;28;19970;-77
2023/03/25 02:51:24;;;;;;;;;;;8.60;99.90;;;;;;5026707;28;19951;-76
2023/03/25 02:53:51;;;;;;;;;;;8.60;99.90;;;;;;5025980;28;19924;-76
2023/03/25 02:56:21;;;;;;;;;;;8.70;99.90;;;;;;5024727;28;19948;-78
2023/03/25 02:58:48;;;;;;;;;;;8.60;99.90;;;;;;5028733;28;19925;-76
2023/03/25 03:01:14;;;;;;;;;;;8.60;99.90;;;;;;5023998;28;19925;-77
2023/03/25 03:03:40;;;;;;;;;;;8.60;99.90;;;;;;5026154;28;19947;-75
2023/03/25 03:06:06;;;;;;;;;;;8.60;99.90;;;;;;5031960;28;20371;-78
2023/03/25 03:08:34;;;;;;;;;;;8.60;99.90;;;;;;5023898;28;20367;-77
2023/03/25 03:11:05;;;;;;;;;;;8.70;99.90;;;;;;5034066;28;19921;-77
2023/03/25 03:13:50;;;;;;;;;;;8.60;99.90;;;;;;5027433;28;20031;-78
2023/03/25 03:16:36;;;;;;;;;;;8.60;99.90;;;;;;5015945;28;19925;-76
2023/03/25 03:19:01;;;;;;;;;;;8.70;99.90;;;;;;5029112;28;19968;-76
2023/03/25 03:21:31;;;;;;;;;;;8.60;99.90;;;;;;5036387;28;19925;-76
2023/03/25 03:24:06;;;;;;;;;;;8.60;99.90;;;;;;5025522;28;20430;-77
2023/03/25 03:26:37;;;;;;;;;;;8.60;99.90;;;;;;5024404;28;20011;-77
2023/03/25 03:29:07;;;;;;;;;;;8.60;99.90;;;;;;5027810;28;19936;-77
2023/03/25 03:31:40;;;;;;;;;;;8.60;99.90;;;;;;5039014;28;19935;-77
2023/03/25 03:34:29;;;;;;;;;;;8.70;99.90;;;;;;5031034;28;19925;-76
2023/03/25 03:36:56;;;;;;;;;;;8.70;99.90;;;;;;5000586;28;20015;-77
2023/03/25 03:39:25;;;;;;;;;;;8.60;99.90;;;;;;5049620;28;19924;-77
2023/03/25 03:41:53;;;;;;;;;;;8.70;99.90;;;;;;5033861;28;20378;-77
2023/03/25 03:44:20;;;;;;;;;;;8.70;99.90;;;;;;5036665;28;19929;-77
2023/03/25 03:46:45;;;;;;;;;;;8.70;99.90;;;;;;5027842;28;19965;-77
2023/03/25 03:49:14;;;;;;;;;;;8.70;99.90;;;;;;5030890;28;19920;-76
2023/03/25 03:51:42;;;;;;;;;;;8.70;99.90;;;;;;5038089;28;19920;-77
2023/03/25 03:54:12;;;;;;;;;;;8.70;99.90;;;;;;5032321;28;19924;-76
2023/03/25 03:56:45;;;;;;;;;;;8.60;99.90;;;;;;5026280;28;20390;-76
2023/03/25 03:59:13;;;;;;;;;;;8.60;99.90;;;;;;5033163;28;19921;-77
2023/03/25 04:01:45;;;;;;;;;;;8.60;99.90;;;;;;5035135;28;19936;-77
2023/03/25 04:04:13;;;;;;;;;;;8.50;99.90;;;;;;5027379;28;19932;-76
2023/03/25 04:06:40;;;;;;;;;;;8.50;99.90;;;;;;5015412;28;19936;-78
2023/03/25 04:09:26;;;;;;;;;;;8.50;99.90;;;;;;5022652;28;19925;-76
2023/03/25 04:12:10;;;;;;;;;;;8.50;99.90;;;;;;5033865;28;19925;-76
2023/03/25 04:14:36;;;;;;;;;;;8.40;99.90;;;;;;5027971;28;19925;-76
2023/03/25 04:17:03;;;;;;;;;;;8.50;99.90;;;;;;5013168;28;19920;-74
2023/03/25 04:19:32;;;;;;;;;;;8.50;99.90;;;;;;5038430;28;19921;-76
2023/03/25 04:22:02;;;;;;;;;;;8.50;99.90;;;;;;5049060;28;19928;-76
2023/03/25 04:24:31;;;;;;;;;;;8.50;99.90;;;;;;5043705;28;19928;-77
2023/03/25 04:26:58;;;;;;;;;;;8.60;99.90;;;;;;5010942;28;20237;-76
2023/03/25 04:29:24;;;;;;;;;;;8.50;99.90;;;;;;5033717;28;19925;-76
2023/03/25 04:31:53;;;;;;;;;;;8.60;99.90;;;;;;5043227;28;20259;-77
2023/03/25 04:34:20;;;;;;;;;;;8.60;99.90;;;;;;5039132;28;20283;-76
2023/03/25 04:36:48;;;;;;;;;;;8.70;99.90;;;;;;5013295;28;20055;-76
2023/03/25 04:39:16;;;;;;;;;;;8.70;99.90;;;;;;5028140;28;19921;-76
2023/03/25 04:41:42;;;;;;;;;;;8.60;99.90;;;;;;5035884;28;19924;-76
2023/03/25 04:44:09;;;;;;;;;;;8.70;99.90;;;;;;5030590;28;19929;-77
2023/03/25 04:46:35;;;;;;;;;;;8.70;99.90;;;;;;5028972;28;20811;-76
2023/03/25 04:49:04;;;;;;;;;;;8.70;99.90;;;;;;5039798;28;19921;-78
2023/03/25 04:51:31;;;;;;;;;;;8.70;99.90;;;;;;5028236;28;19925;-76
2023/03/25 04:53:57;;;;;;;;;;;8.70;99.90;;;;;;5022521;28;19975;-76
2023/03/25 04:56:23;;;;;;;;;;;8.70;99.90;;;;;;5025470;28;20210;-76
2023/03/25 04:58:48;;;;;;;;;;;8.70;99.90;;;;;;5037109;28;19936;-76
2023/03/25 05:01:19;;;;;;;;;;;8.70;99.90;;;;;;5045991;28;19924;-78
2023/03/25 05:03:44;;;;;;;;;;;8.70;99.90;;;;;;5033418;28;20168;-76
2023/03/25 05:06:10;;;;;;;;;;;8.70;99.90;;;;;;5028433;28;20066;-77
2023/03/25 05:08:36;;;;;;;;;;;8.70;99.90;;;;;;5003595;28;19920;-77
2023/03/25 05:11:02;;;;;;;;;;;8.70;99.90;;;;;;5036644;28;19932;-76
2023/03/25 05:13:27;;;;;;;;;;;8.70;99.90;;;;;;5036348;28;19931;-76
2023/03/25 05:15:53;;;;;;;;;;;8.70;99.90;;;;;;5033829;28;19924;-76
2023/03/25 05:18:18;;;;;;;;;;;8.70;99.90;;;;;;5012234;28;19968;-76
2023/03/25 05:20:45;;;;;;;;;;;8.70;99.90;;;;;;5027528;28;19948;-76
2023/03/25 05:23:16;;;;;;;;;;;8.60;99.90;;;;;;5022765;28;20381;-76
2023/03/25 05:25:43;;;;;;;;;;;8.70;99.90;;;;;;5027992;28;19924;-76
2023/03/25 05:28:12;;;;;;;;;;;8.70;99.90;;;;;;5023142;28;20201;-76
2023/03/25 05:30:42;;;;;;;;;;;8.60;99.90;;;;;;5027911;28;20306;-77
2023/03/25 05:33:15;;;;;;;;;;;8.70;99.90;;;;;;5042045;28;19921;-75
2023/03/25 05:35:41;;;;;;;;;;;8.70;99.90;;;;;;5028547;28;19925;-76
2023/03/25 05:38:07;;;;;;;;;;;8.60;99.90;;;;;;5012904;28;20333;-76
2023/03/25 05:40:33;;;;;;;;;;;8.60;99.90;;;;;;5032499;28;19932;-77
2023/03/25 05:42:59;;;;;;;;;;;8.60;99.90;;;;;;5040448;28;19943;-77
2023/03/25 05:45:24;;;;;;;;;;;8.60;99.90;;;;;;5048919;28;20422;-76
2023/03/25 05:47:51;;;;;;;;;;;8.60;99.90;;;;;;5029195;28;19921;-77
2023/03/25 05:50:16;;;;;;;;;;;8.60;99.90;;;;;;5041479;28;19928;-77
2023/03/25 05:52:42;;;;;;;;;;;8.60;99.90;;;;;;5028176;28;19921;-77
2023/03/25 05:55:15;;;;;;;;;;;8.60;99.90;;;;;;5033978;28;19928;-77
2023/03/25 05:57:41;;;;;;;;;;;8.60;99.90;;;;;;5016029;28;19928;-77
2023/03/25 06:00:07;;;;;;;;;;;8.60;99.90;;;;;;5041869;28;19928;-77
2023/03/25 06:02:34;;;;;;;;;;;8.60;99.90;;;;;;5028747;28;19932;-77
2023/03/25 06:04:59;;;;;;;;;;;8.60;99.90;;;;;;5046178;28;19920;-77
2023/03/25 06:07:25;;;;;;;;;;;8.60;99.90;;;;;;5011973;28;19924;-76
2023/03/25 06:09:53;;;;;;;;;;;8.60;99.90;;;;;;5029699;28;19921;-76
2023/03/25 06:12:21;;;;;;;;;;;8.60;99.90;;;;;;5030731;28;20395;-77
2023/03/25 06:14:52;;;;;;;;;;;8.60;99.90;;;;;;5024398;28;20520;-77
2023/03/25 06:17:19;;;;;;;;;;;8.60;99.90;;;;;;5028832;28;19994;-77
2023/03/25 06:19:45;;;;;;;;;;;8.60;99.90;;;;;;5037072;28;20363;-77
2023/03/25 06:22:11;;;;;;;;;;;8.50;99.90;;;;;;5033963;28;19920;-76
2023/03/25 06:24:40;;;;;;;;;;;8.70;99.90;;;;;;5042587;28;20371;-76
2023/03/25 06:27:07;;;;;;;;;;;8.70;99.90;;;;;;5015756;28;19920;-76
2023/03/25 06:29:33;;;;;;;;;;;8.70;99.90;;;;;;5036875;28;19994;-78
2023/03/25 06:31:59;;;;;;;;;;;8.70;99.90;;;;;;5048989;28;20015;-76
2023/03/25 06:34:25;;;;;;;;;;;8.70;99.90;;;;;;5038977;28;20015;-77
2023/03/25 06:36:52;;;;;;;;;;;8.60;99.90;;;;;;5033541;28;19967;-76
2023/03/25 06:39:19;;;;;;;;;;;8.60;99.90;;;;;;5015346;28;19980;-75
2023/03/25 06:41:44;;;;;;;;;;;8.60;99.90;;;;;;5037085;28;19924;-77
2023/03/25 06:44:10;;;;;;;;;;;8.70;99.90;;;;;;5040787;28;19987;-77
2023/03/25 06:46:36;;;;;;;;;;;8.60;99.90;;;;;;5035212;28;19921;-77
2023/03/25 06:49:01;;;;;;;;;;;8.60;99.90;;;;;;5029538;28;19943;-77
2023/03/25 06:51:27;;;;;;;;;;;8.60;99.90;;;;;;5029191;28;19957;-77
2023/03/25 06:53:53;;;;;;;;;;;8.60;99.90;;;;;;5029201;28;20398;-76
2023/03/25 06:56:18;;;;;;;;;;;8.60;99.90;;;;;;5026128;28;20012;-77
2023/03/25 06:58:44;;;;;;;;;;;8.60;99.90;;;;;;5034082;28;19924;-76
2023/03/25 07:01:09;;;;;;;;;;;8.70;99.90;;;;;;5028633;28;19928;-77
2023/03/25 07:03:36;;;;;;;;;;;8.70;99.90;;;;;;5027390;28;19928;-77
2023/03/25 07:06:01;;;;;;;;;;;8.70;99.90;;;;;;5029230;28;20426;-77
2023/03/25 07:08:27;;;;;;;;;;;8.80;99.90;;;;;;5012329;28;19927;-77
2023/03/25 07:10:52;;;;;;;;;;;8.70;99.90;;;;;;5023936;28;19925;-76
2023/03/25 07:13:18;;;;;;;;;;;8.70;99.90;;;;;;5045709;28;20330;-77
2023/03/25 07:15:44;;;;;;;;;;;8.70;99.90;;;;;;5038172;28;19920;-77
2023/03/25 07:18:10;;;;;;;;;;;8.70;99.90;;;;;;5019233;28;20335;-77
2023/03/25 07:20:35;;;;;;;;;;;8.70;99.90;;;;;;5030629;28;19921;-76
2023/03/25 07:23:01;;;;;;;;;;;8.70;99.90;;;;;;5044082;28;19932;-77
2023/03/25 07:25:26;;;;;;;;;;;8.20;99.90;;;;;;5041134;28;19921;-76
2023/03/25 07:27:52;;;;;;;;;;;7.90;99.90;;;;;;5020337;28;19921;-76
2023/03/25 07:30:18;;;;;;;;;;;7.90;99.90;;;;;;5045294;28;20296;-76
2023/03/25 07:32:44;;;;;;;;;;;7.90;99.90;;;;;;5031446;28;19925;-76
2023/03/25 07:35:10;;;;;;;;;;;7.90;99.90;;;;;;5042805;28;19920;-76
2023/03/25 07:37:35;;;;;;;;;;;7.90;99.90;;;;;;5025064;28;19935;-76
2023/03/25 07:40:01;;;;;;;;;;;7.90;99.90;;;;;;5043145;28;20389;-76
2023/03/25 07:42:27;;;;;;;;;;;7.90;99.90;;;;;;5047060;28;20069;-78
2023/03/25 07:44:52;;;;;;;;;;;8.00;99.90;;;;;;5037726;28;19991;-77
2023/03/25 07:47:18;;;;;;;;;;;8.00;99.90;;;;;;5024297;28;19929;-76
2023/03/25 07:49:45;;;;;;;;;;;7.90;99.90;;;;;;5040943;28;19921;-75
2023/03/25 07:52:11;;;;;;;;;;;7.90;99.90;;;;;;5005377;28;19975;-76
2023/03/25 07:54:37;;;;;;;;;;;7.90;99.90;;;;;;4999994;28;20012;-76
2023/03/25 07:57:03;;;;;;;;;;;7.90;99.90;;;;;;4971101;28;19929;-74
2023/03/25 07:59:28;;;;;;;;;;;8.00;99.90;;;;;;4992498;28;19929;-76
2023/03/25 08:01:54;;;;;;;;;;;8.00;99.90;;;;;;5031141;28;19920;-77
2023/03/25 08:04:19;;;;;;;;;;;8.10;99.90;;;;;;5006221;28;19925;-76
2023/03/25 08:06:45;;;;;;;;;;;8.10;99.90;;;;;;5016605;28;19924;-76
2023/03/25 08:09:11;;;;;;;;;;;8.10;99.90;;;;;;5021177;28;19943;-76
2023/03/25 08:11:36;;;;;;;;;;;8.10;99.90;;;;;;5025302;28;20030;-77
2023/03/25 08:14:02;;;;;;;;;;;8.00;99.90;;;;;;5028391;28;19927;-76
2023/03/25 08:16:27;;;;;;;;;;;8.00;99.90;;;;;;5017485;28;20301;-76
2023/03/25 08:18:53;;;;;;;;;;;8.00;99.90;;;;;;5009986;28;20390;-77
2023/03/25 08:21:23;;;;;;;;;;;7.90;99.90;;;;;;5008613;28;20315;-77
2023/03/25 08:23:50;;;;;;;;;;;7.90;99.90;;;;;;5025263;28;19921;-76
2023/03/25 08:26:15;;;;;;;;;;;8.00;99.90;;;;;;5018506;28;19921;-77
2023/03/25 08:28:41;;;;;;;;;;;8.00;99.90;;;;;;5020838;28;20010;-76
2023/03/25 08:31:08;;;;;;;;;;;8.00;99.90;;;;;;5028595;28;19921;-76
2023/03/25 08:33:38;;;;;;;;;;;7.90;99.90;;;;;;5029262;28;19925;-77
2023/03/25 08:36:04;;;;;;;;;;;7.90;99.90;;;;;;5022924;28;19925;-76
2023/03/25 08:38:30;;;;;;;;;;;8.00;99.90;;;;;;5015669;28;20310;-76
2023/03/25 08:40:57;;;;;;;;;;;8.00;99.90;;;;;;5011566;28;19920;-76
2023/03/25 08:43:22;;;;;;;;;;;8.20;99.90;;;;;;5025558;28;19928;-77
2023/03/25 08:45:48;;;;;;;;;;;8.30;99.90;;;;;;5030050;28;19929;-76
2023/03/25 08:48:14;;;;;;;;;;;8.50;99.90;;;;;;5005247;28;19921;-76
2023/03/25 08:50:39;;;;;;;;;;;8.60;99.90;;;;;;4997291;28;19921;-77
2023/03/25 08:53:05;;;;;;;;;;;8.60;99.90;;;;;;5026406;28;20372;-76
2023/03/25 08:55:31;;;;;;;;;;;8.70;99.90;;;;;;5023591;28;20011;-76
2023/03/25 08:58:00;;;;;;;;;;;8.80;99.90;;;;;;5006993;28;19925;-76
2023/03/25 09:00:26;;;;;;;;;;;9.10;99.90;;;;;;5028565;28;20355;-76
2023/03/25 09:02:51;;;;;;;;;;;9.20;99.90;;;;;;5029327;28;19963;-77
2023/03/25 09:05:17;;;;;;;;;;;9.30;99.90;;;;;;5024800;28;19921;-77
2023/03/25 09:07:43;;;;;;;;;;;9.30;99.90;;;;;;5004518;28;20008;-77
2023/03/25 09:10:09;;;;;;;;;;;9.30;99.90;;;;;;5015854;28;20008;-76
2023/03/25 09:12:34;;;;;;;;;;;9.40;99.90;;;;;;5017692;28;19921;-77
2023/03/25 09:15:00;;;;;;;;;;;9.40;99.90;;;;;;5009822;28;20259;-77
2023/03/25 09:17:26;;;;;;;;;;;9.40;99.90;;;;;;5006880;28;19947;-75
2023/03/25 09:19:51;;;;;;;;;;;9.40;99.90;;;;;;5029081;28;19925;-76
2023/03/25 09:22:17;;;;;;;;;;;9.40;99.90;;;;;;5015761;28;19928;-77
2023/03/25 09:24:42;;;;;;;;;;;9.40;99.90;;;;;;5017159;28;20019;-75
2023/03/25 09:27:08;;;;;;;;;;;9.50;99.90;;;;;;5009235;28;19936;-76
2023/03/25 09:29:34;;;;;;;;;;;9.60;99.90;;;;;;5028963;28;20212;-77
2023/03/25 09:31:59;;;;;;;;;;;9.50;99.90;;;;;;5030316;28;19925;-76
2023/03/25 09:34:26;;;;;;;;;;;9.50;99.90;;;;;;5001948;28;19928;-76
2023/03/25 09:36:55;;;;;;;;;;;9.60;99.90;;;;;;5011715;28;19928;-77
2023/03/25 09:39:20;;;;;;;;;;;9.60;99.90;;;;;;5012892;28;20393;-76
2023/03/25 09:42:04;;;;;;;;;;;9.50;99.90;;;;;;5002434;28;19921;-76
2023/03/25 09:44:30;;;;;;;;;;;9.60;99.90;;;;;;5042052;28;20371;-76
2023/03/25 09:46:58;;;;;;;;;;;9.60;99.90;;;;;;5032796;28;19921;-76
2023/03/25 09:49:26;;;;;;;;;;;9.60;99.90;;;;;;5044930;28;19932;-76
2023/03/25 09:51:52;;;;;;;;;;;9.60;99.90;;;;;;5040633;28;20290;-76
2023/03/25 09:54:26;;;;;;;;;;;9.60;99.90;;;;;;5048287;28;19925;-77
2023/03/25 09:56:55;;;;;;;;;;;9.50;99.90;;;;;;5026389;28;19920;-76
2023/03/25 09:59:38;;;;;;;;;;;9.50;99.90;;;;;;5042973;28;20015;-77
2023/03/25 10:02:33;;;;;;;;;;;9.30;99.90;;;;;;5045420;28;20059;-76
2023/03/25 10:05:09;;;;;;;;;;;9.10;99.90;;;;;;5025642;28;20462;-76
2023/03/25 10:07:53;;;;;;;;;;;9.20;99.90;;;;;;5026881;28;19956;-77
2023/03/25 10:10:26;;;;;;;;;;;9.20;99.90;;;;;;5038040;28;19928;-77
2023/03/25 10:13:06;;;;;;;;;;;9.30;99.90;;;;;;5034840;28;20409;-76
2023/03/25 10:15:35;;;;;;;;;;;9.40;99.90;;;;;;5034848;28;20007;-76
2023/03/25 10:18:21;;;;;;;;;;;9.60;99.90;;;;;;5029790;28;19925;-76
2023/03/25 10:20:59;;;;;;;;;;;9.50;99.90;;;;;;5043951;28;20070;-76
2023/03/25 10:23:24;;;;;;;;;;;9.40;99.90;;;;;;5044401;28;20352;-76
2023/03/25 10:25:54;;;;;;;;;;;9.50;99.90;;;;;;5041935;28;19982;-76
2023/03/25 10:28:24;;;;;;;;;;;9.70;99.90;;;;;;5031337;28;19921;-77
2023/03/25 10:30:51;;;;;;;;;;;9.70;99.90;;;;;;5036091;28;20007;-77
2023/03/25 10:33:29;;;;;;;;;;;9.80;99.90;;;;;;5039931;28;20004;-77
2023/03/25 10:35:55;;;;;;;;;;;9.80;99.90;;;;;;5028401;28;20221;-76
2023/03/25 10:38:23;;;;;;;;;;;9.70;99.90;;;;;;5019531;28;19987;-76
2023/03/25 10:40:55;;;;;;;;;;;9.70;99.90;;;;;;5038315;28;19976;-77
2023/03/25 10:43:25;;;;;;;;;;;9.70;99.90;;;;;;5034171;28;19929;-76
2023/03/25 10:45:53;;;;;;;;;;;9.70;99.90;;;;;;5040331;28;19932;-76
2023/03/25 10:48:23;;;;;;;;;;;9.80;99.90;;;;;;5026007;28;19933;-76
2023/03/25 10:50:49;;;;;;;;;;;9.80;99.90;;;;;;5031426;28;19929;-76
2023/03/25 10:53:20;;;;;;;;;;;9.90;99.90;;;;;;5034938;28;19932;-77
2023/03/25 10:55:48;;;;;;;;;;;10.00;99.90;;;;;;5041532;28;19933;-77
2023/03/25 10:58:15;;;;;;;;;;;10.00;99.90;;;;;;5027675;28;20306;-76
2023/03/25 11:00:41;;;;;;;;;;;10.10;99.90;;;;;;5032902;28;19921;-76
2023/03/25 11:03:13;;;;;;;;;;;10.30;99.90;;;;;;5039392;28;19931;-77
2023/03/25 11:05:40;;;;;;;;;;;10.40;99.90;;;;;;5028682;28;19925;-77
2023/03/25 11:08:08;;;;;;;;;;;10.30;99.90;;;;;;5023463;28;19964;-77
2023/03/25 11:10:33;;;;;;;;;;;10.40;99.90;;;;;;5028782;28;20294;-76
2023/03/25 11:13:02;;;;;;;;;;;10.80;99.90;;;;;;5046940;28;19920;-76
2023/03/25 11:15:29;;;;;;;;;;;10.80;99.90;;;;;;5040547;28;19932;-77
2023/03/25 11:17:58;;;;;;;;;;;10.60;99.90;;;;;;5023593;28;20389;-76
2023/03/25 11:20:28;;;;;;;;;;;10.60;99.90;;;;;;5040796;28;19971;-77
2023/03/25 11:22:58;;;;;;;;;;;10.50;99.90;;;;;;5025929;28;19921;-77
2023/03/25 11:25:28;;;;;;;;;;;10.40;99.90;;;;;;5038708;28;20341;-76
2023/03/25 11:28:12;;;;;;;;;;;10.60;99.90;;;;;;5025440;28;19960;-76
2023/03/25 11:30:58;;;;;;;;;;;10.60;99.90;;;;;;5046667;28;19932;-76
2023/03/25 11:33:24;;;;;;;;;;;10.70;99.90;;;;;;5049099;28;20300;-76
2023/03/25 11:35:49;;;;;;;;;;;10.90;99.90;;;;;;5044502;28;20275;-76
2023/03/25 11:38:19;;;;;;;;;;;10.90;99.90;;;;;;5007459;28;19920;-76
2023/03/25 11:40:50;;;;;;;;;;;11.10;99.90;;;;;;5031700;28;20337;-76
2023/03/25 11:43:18;;;;;;;;;;;11.00;99.90;;;;;;5036531;28;19928;-77
2023/03/25 11:45:45;;;;;;;;;;;11.00;99.90;;;;;;5045626;28;19927;-76
2023/03/25 11:48:14;;;;;;;;;;;11.30;99.90;;;;;;5025344;28;20355;-75
2023/03/25 11:50:43;;;;;;;;;;;11.30;99.90;;;;;;5034080;28;19921;-76
2023/03/25 11:53:14;;;;;;;;;;;11.30;99.90;;;;;;5038917;28;19932;-75
2023/03/25 11:55:48;;;;;;;;;;;11.10;99.90;;;;;;5033713;28;19956;-75
2023/03/25 11:58:18;;;;;;;;;;;11.00;99.90;;;;;;5023435;28;19925;-76
2023/03/25 12:00:48;;;;;;;;;;;10.80;99.90;;;;;;5030455;28;19974;-76
2023/03/25 12:03:13;;;;;;;;;;;10.70;99.90;;;;;;5046979;28;19970;-76
2023/03/25 12:05:40;;;;;;;;;;;10.50;99.90;;;;;;5042465;28;19924;-75
2023/03/25 12:08:08;;;;;;;;;;;10.60;99.90;;;;;;5022686;28;19952;-78
2023/03/25 12:10:47;;;;;;;;;;;10.80;99.90;;;;;;5042289;28;19974;-77
2023/03/25 12:13:19;;;;;;;;;;;10.70;99.90;;;;;;5046439;28;19932;-76
2023/03/25 12:16:01;;;;;;;;;;;10.70;99.90;;;;;;5030556;28;19952;-76
2023/03/25 12:18:33;;;;;;;;;;;10.90;99.90;;;;;;5019069;28;19927;-76
2023/03/25 12:21:06;;;;;;;;;;;10.70;99.90;;;;;;5049845;28;19971;-76
2023/03/25 12:23:37;;;;;;;;;;;10.70;99.90;;;;;;5042256;28;19931;-77
2023/03/25 12:26:12;;;;;;;;;;;10.60;99.90;;;;;;5036452;28;20310;-76
2023/03/25 12:28:37;;;;;;;;;;;10.70;99.90;;;;;;5030617;28;19921;-77
2023/03/25 12:31:03;;;;;;;;;;;10.70;99.90;;;;;;5033582;28;20378;-77
2023/03/25 12:33:46;;;;;;;;;;;10.80;99.90;;;;;;5042407;28;19925;-77
2023/03/25 12:36:48;;;;;;;;;;;10.70;99.90;;;;;;5024640;28;20031;-75
2023/03/25 12:39:26;;;;;;;;;;;10.70;99.90;;;;;;4965154;28;19933;-77
2023/03/25 12:41:58;;;;;;;;;;;10.70;99.90;;;;;;5027357;28;19921;-75
2023/03/25 12:44:38;;;;;;;;;;;10.60;99.90;;;;;;5038726;28;19925;-76
2023/03/25 12:47:23;;;;;;;;;;;10.50;99.90;;;;;;5015527;28;19921;-75
2023/03/25 12:50:01;;;;;;;;;;;10.40;99.90;;;;;;5030361;28;20013;-75
2023/03/25 12:52:40;;;;;;;;;;;10.20;99.90;;;;;;5041742;28;20264;-76
2023/03/25 12:55:19;;;;;;;;;;;10.00;99.90;;;;;;5032833;28;19959;-76
2023/03/25 12:57:54;;;;;;;;;;;9.90;99.90;;;;;;5026875;28;19925;-76
2023/03/25 13:00:43;;;;;;;;;;;9.80;99.90;;;;;;5038712;28;20401;-78
2023/03/25 13:03:11;;;;;;;;;;;9.60;99.90;;;;;;5044627;28;19962;-76
2023/03/25 13:05:39;;;;;;;;;;;9.40;99.90;;;;;;5035282;28;19975;-76
2023/03/25 13:08:15;;;;;;;;;;;9.00;99.90;;;;;;5012574;28;20066;-77
2023/03/25 13:10:42;;;;;;;;;;;9.00;99.90;;;;;;5037774;28;19924;-77
2023/03/25 13:13:16;;;;;;;;;;;9.10;99.90;;;;;;5017008;28;19932;-77
2023/03/25 13:15:46;;;;;;;;;;;9.20;99.90;;;;;;5044782;28;19925;-77
2023/03/25 13:18:18;;;;;;;;;;;9.10;99.90;;;;;;5007434;28;19935;-76
2023/03/25 13:20:49;;;;;;;;;;;8.80;99.90;;;;;;5030385;28;19983;-76
2023/03/25 13:23:20;;;;;;;;;;;8.70;99.90;;;;;;5029823;28;20011;-77
2023/03/25 13:26:05;;;;;;;;;;;8.70;99.90;;;;;;5032293;28;19928;-76
2023/03/25 13:28:37;;;;;;;;;;;8.80;99.90;;;;;;5022769;28;19928;-76
2023/03/25 13:31:10;;;;;;;;;;;8.90;99.90;;;;;;5029756;28;19948;-76
2023/03/25 13:33:37;;;;;;;;;;;9.00;99.90;;;;;;5033914;28;19921;-77
2023/03/25 13:36:12;;;;;;;;;;;9.00;99.90;;;;;;5029590;28;20319;-76
2023/03/25 13:38:49;;;;;;;;;;;9.10;99.90;;;;;;5027725;28;19924;-77
2023/03/25 13:41:17;;;;;;;;;;;9.00;99.90;;;;;;5042120;28;19936;-77
2023/03/25 13:43:43;;;;;;;;;;;9.10;99.90;;;;;;5042002;28;20308;-77
2023/03/25 13:46:13;;;;;;;;;;;9.10;99.90;;;;;;5034649;28;19947;-76
2023/03/25 13:48:48;;;;;;;;;;;9.00;99.90;;;;;;5029700;28;20378;-76
2023/03/25 13:51:14;;;;;;;;;;;8.50;99.90;;;;;;5040370;28;19963;-76
2023/03/25 13:53:45;;;;;;;;;;;8.40;99.90;;;;;;5031909;28;19968;-77
2023/03/25 13:56:14;;;;;;;;;;;8.40;99.90;;;;;;5023344;28;20002;-78
2023/03/25 13:58:58;;;;;;;;;;;8.30;99.90;;;;;;5029552;28;19920;-76
2023/03/25 14:01:24;;;;;;;;;;;8.10;99.90;;;;;;5043829;28;19974;-75
2023/03/25 14:04:06;;;;;;;;;;;7.90;99.90;;;;;;5041694;28;20134;-76
2023/03/25 14:06:35;;;;;;;;;;;7.90;99.90;;;;;;5013589;28;19928;-76
2023/03/25 14:09:03;;;;;;;;;;;8.00;99.90;;;;;;5032996;28;19920;-76
2023/03/25 14:11:47;;;;;;;;;;;8.00;99.90;;;;;;5039768;28;19925;-76
2023/03/25 14:14:21;;;;;;;;;;;8.10;99.90;;;;;;5035228;28;19928;-76
2023/03/25 14:16:49;;;;;;;;;;;8.20;99.90;;;;;;5019823;28;19925;-76
2023/03/25 14:19:19;;;;;;;;;;;8.30;99.90;;;;;;5030422;28;20283;-76
2023/03/25 14:21:49;;;;;;;;;;;8.50;99.90;;;;;;5031120;28;20035;-77
2023/03/25 14:24:28;;;;;;;;;;;8.70;99.90;;;;;;5031470;28;19921;-76
2023/03/25 14:26:58;;;;;;;;;;;8.80;99.90;;;;;;5014672;28;19936;-76
2023/03/25 14:29:44;;;;;;;;;;;8.90;99.90;;;;;;5026388;28;19921;-76
2023/03/25 14:32:16;;;;;;;;;;;9.00;99.90;;;;;;5031817;28;20427;-76
2023/03/25 14:34:42;;;;;;;;;;;8.90;99.90;;;;;;5029828;28;19925;-77
2023/03/25 14:37:09;;;;;;;;;;;8.80;99.90;;;;;;5012654;28;19925;-77
2023/03/25 14:39:38;;;;;;;;;;;8.70;99.90;;;;;;5026370;28;19929;-76